sensor_id;sensor_type;location;lat;lon;timestamp;P1;durP1;ratioP1;P2;durP2;ratioP2
43554;SDS011;35085;40.398;-3.702;2024-03-06T00:02:52;3.63;;;1.52;;
43554;SDS011;35085;40.398;-3.702;2024-03-06T00:13:00;3.92;;;1.50;;
43554;SDS011;35085;40.398;-3.702;2024-03-06T00:23:09;4.57;;;1.55;;
43554;SDS011;35085;40.398;-3.702;2024-03-06T00:33:17;5.47;;;2.30;;
43554;SDS011;35085;40.398;-3.702;2024-03-06T00:43:25;4.88;;;1.88;;
43554;SDS011;35085;40.398;-3.702;2024-03-06T00:53:36;5.50;;;1.63;;
43554;SDS011;35085;40.398;-3.702;2024-03-06T01:03:40;4.75;;;1.80;;
43554;SDS011;35085;40.398;-3.702;2024-03-06T01:13:48;5.50;;;2.00;;
43554;SDS011;35085;40.398;-3.702;2024-03-06T01:23:56;4.30;;;2.10;;
43554;SDS011;35085;40.398;-3.702;2024-03-06T01:33:58;4.90;;;1.95;;
43554;SDS011;35085;40.398;-3.702;2024-03-06T01:44:06;6.00;;;2.00;;
43554;SDS011;35085;40.398;-3.702;2024-03-06T01:54:14;3.85;;;1.75;;
43554;SDS011;35085;40.398;-3.702;2024-03-06T02:04:22;3.33;;;1.80;;
43554;SDS011;35085;40.398;-3.702;2024-03-06T02:14:30;39.38;;;20.75;;
43554;SDS011;35085;40.398;-3.702;2024-03-06T02:24:43;45.30;;;24.10;;
43554;SDS011;35085;40.398;-3.702;2024-03-06T02:34:53;26.50;;;11.98;;
43554;SDS011;35085;40.398;-3.702;2024-03-06T02:45:02;30.67;;;14.33;;
43554;SDS011;35085;40.398;-3.702;2024-03-06T02:55:12;10.98;;;3.85;;
43554;SDS011;35085;40.398;-3.702;2024-03-06T03:05:20;6.25;;;2.60;;
43554;SDS011;35085;40.398;-3.702;2024-03-06T03:15:23;5.03;;;2.13;;
43554;SDS011;35085;40.398;-3.702;2024-03-06T03:25:31;6.13;;;2.05;;
43554;SDS011;35085;40.398;-3.702;2024-03-06T03:35:40;6.53;;;2.10;;
43554;SDS011;35085;40.398;-3.702;2024-03-06T03:45:48;5.43;;;2.05;;
43554;SDS011;35085;40.398;-3.702;2024-03-06T03:55:50;5.45;;;2.08;;
43554;SDS011;35085;40.398;-3.702;2024-03-06T04:05:59;3.50;;;1.58;;
43554;SDS011;35085;40.398;-3.702;2024-03-06T04:16:02;4.47;;;2.25;;
43554;SDS011;35085;40.398;-3.702;2024-03-06T04:26:10;4.47;;;2.20;;
43554;SDS011;35085;40.398;-3.702;2024-03-06T04:36:18;4.75;;;1.88;;
43554;SDS011;35085;40.398;-3.702;2024-03-06T04:46:26;4.93;;;1.90;;
43554;SDS011;35085;40.398;-3.702;2024-03-06T04:56:34;5.13;;;1.80;;
43554;SDS011;35085;40.398;-3.702;2024-03-06T05:06:42;3.65;;;1.75;;
43554;SDS011;35085;40.398;-3.702;2024-03-06T05:16:50;4.55;;;1.85;;
43554;SDS011;35085;40.398;-3.702;2024-03-06T05:26:57;4.97;;;1.95;;
43554;SDS011;35085;40.398;-3.702;2024-03-06T05:37:06;6.67;;;2.07;;
43554;SDS011;35085;40.398;-3.702;2024-03-06T05:47:14;6.38;;;1.77;;
43554;SDS011;35085;40.398;-3.702;2024-03-06T05:57:22;4.63;;;2.40;;
43554;SDS011;35085;40.398;-3.702;2024-03-06T06:07:30;4.20;;;1.85;;
43554;SDS011;35085;40.398;-3.702;2024-03-06T06:17:38;6.40;;;2.13;;
43554;SDS011;35085;40.398;-3.702;2024-03-06T06:27:49;3.97;;;2.10;;
43554;SDS011;35085;40.398;-3.702;2024-03-06T06:37:57;4.68;;;2.13;;
43554;SDS011;35085;40.398;-3.702;2024-03-06T06:48:05;7.82;;;2.10;;
43554;SDS011;35085;40.398;-3.702;2024-03-06T06:58:13;6.57;;;2.60;;
43554;SDS011;35085;40.398;-3.702;2024-03-06T07:08:15;7.32;;;2.70;;
43554;SDS011;35085;40.398;-3.702;2024-03-06T07:18:23;7.65;;;2.40;;
43554;SDS011;35085;40.398;-3.702;2024-03-06T07:28:31;7.07;;;2.58;;
43554;SDS011;35085;40.398;-3.702;2024-03-06T07:38:40;5.78;;;1.65;;
43554;SDS011;35085;40.398;-3.702;2024-03-06T07:48:48;8.23;;;2.08;;
43554;SDS011;35085;40.398;-3.702;2024-03-06T07:58:55;4.68;;;2.00;;
43554;SDS011;35085;40.398;-3.702;2024-03-06T08:09:04;6.80;;;2.30;;
43554;SDS011;35085;40.398;-3.702;2024-03-06T08:19:11;4.32;;;2.00;;
43554;SDS011;35085;40.398;-3.702;2024-03-06T08:29:19;5.72;;;2.20;;
43554;SDS011;35085;40.398;-3.702;2024-03-06T08:39:28;6.23;;;2.50;;
43554;SDS011;35085;40.398;-3.702;2024-03-06T08:49:36;5.90;;;1.80;;
43554;SDS011;35085;40.398;-3.702;2024-03-06T08:59:44;8.88;;;1.60;;
43554;SDS011;35085;40.398;-3.702;2024-03-06T09:09:52;7.70;;;2.05;;
43554;SDS011;35085;40.398;-3.702;2024-03-06T09:20:00;3.53;;;1.70;;
43554;SDS011;35085;40.398;-3.702;2024-03-06T09:30:11;4.43;;;1.80;;
43554;SDS011;35085;40.398;-3.702;2024-03-06T09:40:21;4.05;;;1.75;;
43554;SDS011;35085;40.398;-3.702;2024-03-06T09:50:29;6.15;;;1.90;;
43554;SDS011;35085;40.398;-3.702;2024-03-06T10:00:37;4.60;;;1.88;;
43554;SDS011;35085;40.398;-3.702;2024-03-06T10:10:48;7.90;;;2.20;;
43554;SDS011;35085;40.398;-3.702;2024-03-06T10:20:55;4.75;;;1.92;;
43554;SDS011;35085;40.398;-3.702;2024-03-06T10:31:04;8.33;;;3.63;;
43554;SDS011;35085;40.398;-3.702;2024-03-06T10:41:12;7.75;;;5.63;;
43554;SDS011;35085;40.398;-3.702;2024-03-06T10:51:18;8.27;;;3.35;;
43554;SDS011;35085;40.398;-3.702;2024-03-06T11:01:28;6.30;;;3.13;;
43554;SDS011;35085;40.398;-3.702;2024-03-06T11:11:32;12.18;;;4.20;;
43554;SDS011;35085;40.398;-3.702;2024-03-06T11:21:45;5.57;;;2.50;;
43554;SDS011;35085;40.398;-3.702;2024-03-06T11:32:03;8.75;;;3.92;;
43554;SDS011;35085;40.398;-3.702;2024-03-06T11:42:11;6.00;;;2.83;;
43554;SDS011;35085;40.398;-3.702;2024-03-06T11:52:18;8.70;;;2.25;;
43554;SDS011;35085;40.398;-3.702;2024-03-06T12:02:27;7.10;;;2.80;;
43554;SDS011;35085;40.398;-3.702;2024-03-06T12:12:35;9.57;;;3.38;;
43554;SDS011;35085;40.398;-3.702;2024-03-06T12:22:52;5.60;;;2.50;;
43554;SDS011;35085;40.398;-3.702;2024-03-06T12:32:59;11.95;;;4.43;;
43554;SDS011;35085;40.398;-3.702;2024-03-06T12:43:08;7.22;;;2.03;;
43554;SDS011;35085;40.398;-3.702;2024-03-06T12:53:16;4.95;;;2.60;;
43554;SDS011;35085;40.398;-3.702;2024-03-06T13:03:23;5.13;;;1.65;;
43554;SDS011;35085;40.398;-3.702;2024-03-06T13:13:31;8.85;;;3.25;;
43554;SDS011;35085;40.398;-3.702;2024-03-06T13:23:38;5.53;;;2.38;;
43554;SDS011;35085;40.398;-3.702;2024-03-06T13:33:47;5.83;;;2.20;;
43554;SDS011;35085;40.398;-3.702;2024-03-06T13:43:55;8.43;;;2.53;;
43554;SDS011;35085;40.398;-3.702;2024-03-06T13:54:04;5.18;;;1.90;;
43554;SDS011;35085;40.398;-3.702;2024-03-06T14:04:06;4.47;;;2.10;;
43554;SDS011;35085;40.398;-3.702;2024-03-06T14:14:15;3.35;;;1.85;;
43554;SDS011;35085;40.398;-3.702;2024-03-06T14:24:22;11.68;;;4.90;;
43554;SDS011;35085;40.398;-3.702;2024-03-06T14:34:30;10.75;;;2.50;;
43554;SDS011;35085;40.398;-3.702;2024-03-06T14:44:32;5.75;;;1.70;;
43554;SDS011;35085;40.398;-3.702;2024-03-06T14:54:42;11.77;;;2.17;;
43554;SDS011;35085;40.398;-3.702;2024-03-06T15:04:43;7.03;;;1.90;;
43554;SDS011;35085;40.398;-3.702;2024-03-06T15:14:52;10.63;;;2.95;;
43554;SDS011;35085;40.398;-3.702;2024-03-06T15:24:59;11.90;;;3.70;;
43554;SDS011;35085;40.398;-3.702;2024-03-06T15:35:07;4.68;;;2.03;;
43554;SDS011;35085;40.398;-3.702;2024-03-06T15:45:15;4.88;;;2.10;;
43554;SDS011;35085;40.398;-3.702;2024-03-06T15:55:22;5.05;;;1.75;;
43554;SDS011;35085;40.398;-3.702;2024-03-06T16:05:32;4.23;;;1.90;;
43554;SDS011;35085;40.398;-3.702;2024-03-06T16:15:40;6.80;;;2.47;;
43554;SDS011;35085;40.398;-3.702;2024-03-06T16:25:42;5.18;;;1.98;;
43554;SDS011;35085;40.398;-3.702;2024-03-06T16:35:51;3.03;;;1.90;;
43554;SDS011;35085;40.398;-3.702;2024-03-06T16:45:58;7.30;;;2.53;;
43554;SDS011;35085;40.398;-3.702;2024-03-06T16:56:06;4.75;;;2.22;;
43554;SDS011;35085;40.398;-3.702;2024-03-06T17:06:15;7.07;;;2.50;;
43554;SDS011;35085;40.398;-3.702;2024-03-06T17:16:23;5.50;;;2.20;;
43554;SDS011;35085;40.398;-3.702;2024-03-06T17:26:25;5.82;;;1.95;;
43554;SDS011;35085;40.398;-3.702;2024-03-06T17:36:33;7.35;;;2.30;;
43554;SDS011;35085;40.398;-3.702;2024-03-06T17:46:41;8.93;;;2.60;;
43554;SDS011;35085;40.398;-3.702;2024-03-06T17:56:50;6.05;;;1.85;;
43554;SDS011;35085;40.398;-3.702;2024-03-06T18:06:52;7.03;;;2.53;;
43554;SDS011;35085;40.398;-3.702;2024-03-06T18:17:00;7.43;;;2.22;;
43554;SDS011;35085;40.398;-3.702;2024-03-06T18:27:01;9.05;;;4.03;;
43554;SDS011;35085;40.398;-3.702;2024-03-06T18:37:10;7.72;;;2.08;;
43554;SDS011;35085;40.398;-3.702;2024-03-06T18:47:18;6.47;;;2.08;;
43554;SDS011;35085;40.398;-3.702;2024-03-06T18:57:26;6.78;;;3.10;;
43554;SDS011;35085;40.398;-3.702;2024-03-06T19:07:32;8.45;;;3.92;;
43554;SDS011;35085;40.398;-3.702;2024-03-06T19:17:41;6.67;;;2.57;;
43554;SDS011;35085;40.398;-3.702;2024-03-06T19:27:49;9.88;;;3.47;;
43554;SDS011;35085;40.398;-3.702;2024-03-06T19:37:57;11.75;;;4.35;;
43554;SDS011;35085;40.398;-3.702;2024-03-06T19:48:05;9.07;;;3.92;;
43554;SDS011;35085;40.398;-3.702;2024-03-06T19:58:13;10.63;;;4.28;;
43554;SDS011;35085;40.398;-3.702;2024-03-06T20:08:19;11.90;;;3.90;;
43554;SDS011;35085;40.398;-3.702;2024-03-06T20:18:28;15.33;;;5.57;;
43554;SDS011;35085;40.398;-3.702;2024-03-06T20:28:35;16.60;;;8.13;;
43554;SDS011;35085;40.398;-3.702;2024-03-06T20:38:44;11.15;;;4.45;;
43554;SDS011;35085;40.398;-3.702;2024-03-06T20:48:53;10.00;;;3.30;;
43554;SDS011;35085;40.398;-3.702;2024-03-06T20:59:01;9.02;;;3.35;;
43554;SDS011;35085;40.398;-3.702;2024-03-06T21:09:10;10.45;;;3.88;;
43554;SDS011;35085;40.398;-3.702;2024-03-06T21:19:12;9.65;;;3.75;;
43554;SDS011;35085;40.398;-3.702;2024-03-06T21:29:20;9.45;;;3.28;;
43554;SDS011;35085;40.398;-3.702;2024-03-06T21:39:28;8.52;;;3.70;;
43554;SDS011;35085;40.398;-3.702;2024-03-06T21:49:36;13.95;;;3.55;;
43554;SDS011;35085;40.398;-3.702;2024-03-06T21:59:45;10.43;;;3.70;;
43554;SDS011;35085;40.398;-3.702;2024-03-06T22:09:53;9.00;;;3.63;;
43554;SDS011;35085;40.398;-3.702;2024-03-06T22:20:01;10.00;;;4.00;;
43554;SDS011;35085;40.398;-3.702;2024-03-06T22:30:07;9.05;;;4.10;;
43554;SDS011;35085;40.398;-3.702;2024-03-06T22:40:16;14.32;;;4.80;;
43554;SDS011;35085;40.398;-3.702;2024-03-06T22:50:24;10.85;;;4.93;;
43554;SDS011;35085;40.398;-3.702;2024-03-06T23:00:32;13.75;;;5.60;;
43554;SDS011;35085;40.398;-3.702;2024-03-06T23:10:39;15.65;;;5.53;;
43554;SDS011;35085;40.398;-3.702;2024-03-06T23:20:47;10.52;;;4.55;;
43554;SDS011;35085;40.398;-3.702;2024-03-06T23:30:53;12.13;;;4.88;;
43554;SDS011;35085;40.398;-3.702;2024-03-06T23:41:01;12.30;;;4.65;;
43554;SDS011;35085;40.398;-3.702;2024-03-06T23:51:09;9.20;;;4.90;;
